sensor_id;sensor_type;location;lat;lon;timestamp;pressure;altitude;pressure_sealevel;temperature;humidity
16481;BME280;44634;54.110;12.138;2023-06-14T00:01:04;101404.84;;;17.01;100.00
16481;BME280;44634;54.110;12.138;2023-06-14T00:03:33;101407.84;;;16.63;100.00
16481;BME280;44634;54.110;12.138;2023-06-14T00:06:01;101406.63;;;16.50;100.00
16481;BME280;44634;54.110;12.138;2023-06-14T00:08:28;101398.63;;;16.84;100.00
16481;BME280;44634;54.110;12.138;2023-06-14T00:10:56;101403.66;;;16.61;100.00
16481;BME280;44634;54.110;12.138;2023-06-14T00:13:24;101415.41;;;17.10;100.00
16481;BME280;44634;54.110;12.138;2023-06-14T00:15:53;101435.94;;;17.10;100.00
16481;BME280;44634;54.110;12.138;2023-06-14T00:18:21;101448.25;;;17.03;100.00
16481;BME280;44634;54.110;12.138;2023-06-14T00:20:51;101449.38;;;16.92;100.00
16481;BME280;44634;54.110;12.138;2023-06-14T00:23:19;101431.81;;;16.81;100.00
16481;BME280;44634;54.110;12.138;2023-06-14T00:25:47;101434.56;;;16.98;100.00
16481;BME280;44634;54.110;12.138;2023-06-14T00:28:15;101428.50;;;16.79;100.00
16481;BME280;44634;54.110;12.138;2023-06-14T00:30:43;101425.13;;;16.77;100.00
16481;BME280;44634;54.110;12.138;2023-06-14T00:33:14;101418.59;;;16.46;100.00
16481;BME280;44634;54.110;12.138;2023-06-14T00:35:42;101415.09;;;16.45;100.00
16481;BME280;44634;54.110;12.138;2023-06-14T00:38:10;101406.56;;;16.68;100.00
16481;BME280;44634;54.110;12.138;2023-06-14T00:40:37;101408.00;;;16.62;100.00
16481;BME280;44634;54.110;12.138;2023-06-14T00:43:05;101412.47;;;16.53;100.00
16481;BME280;44634;54.110;12.138;2023-06-14T00:45:33;101417.94;;;16.44;100.00
16481;BME280;44634;54.110;12.138;2023-06-14T00:48:03;101417.53;;;16.64;100.00
16481;BME280;44634;54.110;12.138;2023-06-14T00:50:34;101420.94;;;16.75;100.00
16481;BME280;44634;54.110;12.138;2023-06-14T00:53:03;101424.34;;;16.59;100.00
16481;BME280;44634;54.110;12.138;2023-06-14T00:55:30;101426.31;;;16.83;100.00
16481;BME280;44634;54.110;12.138;2023-06-14T00:57:59;101423.16;;;16.53;100.00
16481;BME280;44634;54.110;12.138;2023-06-14T01:00:27;101430.19;;;16.62;100.00
16481;BME280;44634;54.110;12.138;2023-06-14T01:02:55;101431.25;;;16.35;100.00
16481;BME280;44634;54.110;12.138;2023-06-14T01:05:24;101438.38;;;16.61;100.00
16481;BME280;44634;54.110;12.138;2023-06-14T01:08:18;101428.06;;;16.66;100.00
16481;BME280;44634;54.110;12.138;2023-06-14T01:10:56;101431.66;;;16.23;100.00
16481;BME280;44634;54.110;12.138;2023-06-14T01:13:30;101406.84;;;16.30;100.00
16481;BME280;44634;54.110;12.138;2023-06-14T01:16:00;101411.34;;;16.30;100.00
16481;BME280;44634;54.110;12.138;2023-06-14T01:18:29;101416.53;;;16.05;100.00
16481;BME280;44634;54.110;12.138;2023-06-14T01:20:57;101414.78;;;16.48;100.00
16481;BME280;44634;54.110;12.138;2023-06-14T01:23:26;101422.84;;;16.30;100.00
16481;BME280;44634;54.110;12.138;2023-06-14T01:26:00;101415.91;;;16.38;100.00
16481;BME280;44634;54.110;12.138;2023-06-14T01:28:30;101432.75;;;16.38;100.00
16481;BME280;44634;54.110;12.138;2023-06-14T01:31:01;101429.34;;;16.28;100.00
16481;BME280;44634;54.110;12.138;2023-06-14T01:33:33;101412.66;;;16.26;100.00
16481;BME280;44634;54.110;12.138;2023-06-14T01:36:03;101408.75;;;16.46;100.00
16481;BME280;44634;54.110;12.138;2023-06-14T01:38:34;101420.84;;;16.24;100.00
16481;BME280;44634;54.110;12.138;2023-06-14T01:41:02;101407.22;;;16.35;100.00
16481;BME280;44634;54.110;12.138;2023-06-14T01:43:32;101410.84;;;16.26;100.00
16481;BME280;44634;54.110;12.138;2023-06-14T01:46:00;101417.06;;;16.09;100.00
16481;BME280;44634;54.110;12.138;2023-06-14T01:48:29;101399.09;;;16.19;100.00
16481;BME280;44634;54.110;12.138;2023-06-14T01:50:56;101399.56;;;16.41;100.00
16481;BME280;44634;54.110;12.138;2023-06-14T01:53:24;101410.56;;;16.38;100.00
16481;BME280;44634;54.110;12.138;2023-06-14T01:55:53;101410.00;;;16.00;100.00
16481;BME280;44634;54.110;12.138;2023-06-14T01:58:21;101408.22;;;16.09;100.00
16481;BME280;44634;54.110;12.138;2023-06-14T02:00:50;101408.75;;;16.46;100.00
16481;BME280;44634;54.110;12.138;2023-06-14T02:03:21;101416.09;;;16.18;100.00
16481;BME280;44634;54.110;12.138;2023-06-14T02:05:49;101412.19;;;16.04;100.00
16481;BME280;44634;54.110;12.138;2023-06-14T02:08:17;101412.06;;;16.06;100.00
16481;BME280;44634;54.110;12.138;2023-06-14T02:10:45;101409.50;;;16.30;100.00
16481;BME280;44634;54.110;12.138;2023-06-14T02:13:14;101429.84;;;16.23;100.00
16481;BME280;44634;54.110;12.138;2023-06-14T02:15:42;101426.50;;;16.21;100.00
16481;BME280;44634;54.110;12.138;2023-06-14T02:18:10;101434.75;;;16.10;100.00
16481;BME280;44634;54.110;12.138;2023-06-14T02:20:38;101430.72;;;16.06;100.00
16481;BME280;44634;54.110;12.138;2023-06-14T02:23:06;101442.31;;;15.97;100.00
16481;BME280;44634;54.110;12.138;2023-06-14T02:25:34;101429.25;;;16.12;100.00
16481;BME280;44634;54.110;12.138;2023-06-14T02:28:02;101438.44;;;16.17;100.00
16481;BME280;44634;54.110;12.138;2023-06-14T02:30:32;101435.94;;;16.16;100.00
16481;BME280;44634;54.110;12.138;2023-06-14T02:32:59;101439.84;;;15.77;100.00
16481;BME280;44634;54.110;12.138;2023-06-14T02:35:27;101442.16;;;15.45;100.00
16481;BME280;44634;54.110;12.138;2023-06-14T02:37:55;101436.03;;;15.80;100.00
16481;BME280;44634;54.110;12.138;2023-06-14T02:40:23;101446.09;;;15.68;100.00
16481;BME280;44634;54.110;12.138;2023-06-14T02:42:51;101442.09;;;15.72;100.00
16481;BME280;44634;54.110;12.138;2023-06-14T02:45:18;101443.19;;;16.05;100.00
16481;BME280;44634;54.110;12.138;2023-06-14T02:47:48;101450.41;;;15.69;100.00
16481;BME280;44634;54.110;12.138;2023-06-14T02:50:17;101442.84;;;16.00;100.00
16481;BME280;44634;54.110;12.138;2023-06-14T02:52:44;101439.84;;;15.77;100.00
16481;BME280;44634;54.110;12.138;2023-06-14T02:55:12;101432.19;;;15.83;100.00
16481;BME280;44634;54.110;12.138;2023-06-14T02:57:40;101432.25;;;15.91;100.00
16481;BME280;44634;54.110;12.138;2023-06-14T03:00:09;101425.56;;;15.87;100.00
16481;BME280;44634;54.110;12.138;2023-06-14T03:02:40;101430.66;;;15.98;100.00
16481;BME280;44634;54.110;12.138;2023-06-14T03:05:11;101421.81;;;16.23;100.00
16481;BME280;44634;54.110;12.138;2023-06-14T03:07:39;101436.84;;;15.81;100.00
16481;BME280;44634;54.110;12.138;2023-06-14T03:10:08;101440.19;;;15.83;100.00
16481;BME280;44634;54.110;12.138;2023-06-14T03:12:36;101444.84;;;16.24;100.00
16481;BME280;44634;54.110;12.138;2023-06-14T03:15:05;101446.78;;;16.40;100.00
16481;BME280;44634;54.110;12.138;2023-06-14T03:17:33;101461.72;;;16.59;100.00
16481;BME280;44634;54.110;12.138;2023-06-14T03:20:01;101484.44;;;16.63;100.00
16481;BME280;44634;54.110;12.138;2023-06-14T03:22:31;101468.84;;;15.98;100.00
16481;BME280;44634;54.110;12.138;2023-06-14T03:25:00;101468.00;;;15.98;100.00
16481;BME280;44634;54.110;12.138;2023-06-14T03:27:30;101461.25;;;16.12;100.00
16481;BME280;44634;54.110;12.138;2023-06-14T03:29:58;101472.78;;;15.76;100.00
16481;BME280;44634;54.110;12.138;2023-06-14T03:32:26;101460.44;;;15.40;100.00
16481;BME280;44634;54.110;12.138;2023-06-14T03:34:54;101473.97;;;15.29;100.00
16481;BME280;44634;54.110;12.138;2023-06-14T03:37:22;101470.81;;;14.88;100.00
16481;BME280;44634;54.110;12.138;2023-06-14T03:39:51;101462.28;;;15.12;100.00
16481;BME280;44634;54.110;12.138;2023-06-14T03:42:19;101456.47;;;15.26;100.00
16481;BME280;44634;54.110;12.138;2023-06-14T03:44:46;101464.34;;;15.18;100.00
16481;BME280;44634;54.110;12.138;2023-06-14T03:47:14;101469.16;;;15.32;100.00
16481;BME280;44634;54.110;12.138;2023-06-14T03:49:42;101472.66;;;15.33;100.00
16481;BME280;44634;54.110;12.138;2023-06-14T03:52:10;101479.81;;;15.60;100.00
16481;BME280;44634;54.110;12.138;2023-06-14T03:54:38;101477.53;;;15.83;100.00
16481;BME280;44634;54.110;12.138;2023-06-14T03:57:27;101489.34;;;15.80;100.00
16481;BME280;44634;54.110;12.138;2023-06-14T03:59:55;101494.22;;;15.85;100.00
16481;BME280;44634;54.110;12.138;2023-06-14T04:02:23;101498.88;;;15.65;100.00
16481;BME280;44634;54.110;12.138;2023-06-14T04:04:51;101488.13;;;15.92;100.00
16481;BME280;44634;54.110;12.138;2023-06-14T04:07:20;101499.06;;;15.89;100.00
16481;BME280;44634;54.110;12.138;2023-06-14T04:09:49;101490.19;;;15.81;100.00
16481;BME280;44634;54.110;12.138;2023-06-14T04:12:16;101480.41;;;15.89;100.00
16481;BME280;44634;54.110;12.138;2023-06-14T04:14:45;101481.34;;;15.98;100.00
16481;BME280;44634;54.110;12.138;2023-06-14T04:17:13;101486.06;;;15.86;100.00
16481;BME280;44634;54.110;12.138;2023-06-14T04:19:41;101479.50;;;15.98;100.00
16481;BME280;44634;54.110;12.138;2023-06-14T04:22:09;101475.31;;;16.40;100.00
16481;BME280;44634;54.110;12.138;2023-06-14T04:24:37;101484.63;;;16.35;100.00
16481;BME280;44634;54.110;12.138;2023-06-14T04:27:05;101475.78;;;16.35;100.00
16481;BME280;44634;54.110;12.138;2023-06-14T04:29:33;101474.41;;;16.31;100.00
16481;BME280;44634;54.110;12.138;2023-06-14T04:32:03;101491.22;;;16.75;100.00
16481;BME280;44634;54.110;12.138;2023-06-14T04:34:32;101483.56;;;16.80;100.00
16481;BME280;44634;54.110;12.138;2023-06-14T04:37:01;101492.50;;;17.05;100.00
16481;BME280;44634;54.110;12.138;2023-06-14T04:39:28;101501.75;;;17.19;100.00
16481;BME280;44634;54.110;12.138;2023-06-14T04:41:56;101517.16;;;17.25;100.00
16481;BME280;44634;54.110;12.138;2023-06-14T04:44:27;101528.09;;;17.56;100.00
16481;BME280;44634;54.110;12.138;2023-06-14T04:46:58;101528.81;;;17.16;100.00
16481;BME280;44634;54.110;12.138;2023-06-14T04:49:28;101511.63;;;17.27;100.00
16481;BME280;44634;54.110;12.138;2023-06-14T04:51:59;101490.66;;;17.06;100.00
16481;BME280;44634;54.110;12.138;2023-06-14T04:54:28;101499.81;;;17.37;100.00
16481;BME280;44634;54.110;12.138;2023-06-14T04:56:58;101511.22;;;17.55;100.00
16481;BME280;44634;54.110;12.138;2023-06-14T04:59:25;101510.50;;;17.37;100.00
16481;BME280;44634;54.110;12.138;2023-06-14T05:01:53;101504.59;;;17.92;100.00
16481;BME280;44634;54.110;12.138;2023-06-14T05:04:23;101515.63;;;17.73;100.00
16481;BME280;44634;54.110;12.138;2023-06-14T05:06:54;101542.25;;;18.15;100.00
16481;BME280;44634;54.110;12.138;2023-06-14T05:09:22;101529.50;;;17.76;100.00
16481;BME280;44634;54.110;12.138;2023-06-14T05:11:49;101519.66;;;18.18;100.00
16481;BME280;44634;54.110;12.138;2023-06-14T05:14:17;101531.38;;;18.00;100.00
16481;BME280;44634;54.110;12.138;2023-06-14T05:16:45;101548.09;;;18.35;100.00
16481;BME280;44634;54.110;12.138;2023-06-14T05:19:15;101547.59;;;18.31;100.00
16481;BME280;44634;54.110;12.138;2023-06-14T05:21:44;101557.47;;;18.14;100.00
16481;BME280;44634;54.110;12.138;2023-06-14T05:24:14;101560.97;;;18.48;100.00
16481;BME280;44634;54.110;12.138;2023-06-14T05:26:43;101576.88;;;18.73;100.00
16481;BME280;44634;54.110;12.138;2023-06-14T05:29:11;101568.31;;;18.62;100.00
16481;BME280;44634;54.110;12.138;2023-06-14T05:31:39;101550.09;;;18.41;100.00
16481;BME280;44634;54.110;12.138;2023-06-14T05:34:07;101545.41;;;18.43;100.00
16481;BME280;44634;54.110;12.138;2023-06-14T05:36:34;101554.47;;;18.66;100.00
16481;BME280;44634;54.110;12.138;2023-06-14T05:39:03;101589.66;;;19.19;100.00
16481;BME280;44634;54.110;12.138;2023-06-14T05:41:33;101620.38;;;19.00;100.00
16481;BME280;44634;54.110;12.138;2023-06-14T05:44:01;101601.44;;;18.93;100.00
16481;BME280;44634;54.110;12.138;2023-06-14T05:46:29;101618.69;;;18.91;100.00
16481;BME280;44634;54.110;12.138;2023-06-14T05:48:57;101617.66;;;19.08;100.00
16481;BME280;44634;54.110;12.138;2023-06-14T05:51:24;101618.00;;;19.60;100.00
16481;BME280;44634;54.110;12.138;2023-06-14T05:53:53;101629.41;;;19.63;100.00
16481;BME280;44634;54.110;12.138;2023-06-14T05:56:21;101674.72;;;19.88;100.00
16481;BME280;44634;54.110;12.138;2023-06-14T05:58:50;101681.75;;;19.98;100.00
16481;BME280;44634;54.110;12.138;2023-06-14T06:01:18;101676.59;;;19.80;100.00
16481;BME280;44634;54.110;12.138;2023-06-14T06:03:46;101664.56;;;19.76;100.00
16481;BME280;44634;54.110;12.138;2023-06-14T06:06:14;101646.56;;;19.84;100.00
16481;BME280;44634;54.110;12.138;2023-06-14T06:08:42;101655.84;;;19.74;100.00
16481;BME280;44634;54.110;12.138;2023-06-14T06:11:10;101677.91;;;19.37;100.00
16481;BME280;44634;54.110;12.138;2023-06-14T06:13:38;101652.03;;;19.68;100.00
16481;BME280;44634;54.110;12.138;2023-06-14T06:16:08;101664.47;;;19.45;100.00
16481;BME280;44634;54.110;12.138;2023-06-14T06:18:36;101646.50;;;18.98;100.00
16481;BME280;44634;54.110;12.138;2023-06-14T06:21:05;101656.88;;;19.01;100.00
16481;BME280;44634;54.110;12.138;2023-06-14T06:23:33;101628.91;;;19.90;100.00
16481;BME280;44634;54.110;12.138;2023-06-14T06:26:02;101719.75;;;20.40;100.00
16481;BME280;44634;54.110;12.138;2023-06-14T06:28:30;101733.75;;;20.59;100.00
16481;BME280;44634;54.110;12.138;2023-06-14T06:30:58;101763.34;;;20.96;100.00
16481;BME280;44634;54.110;12.138;2023-06-14T06:33:31;101791.16;;;20.89;100.00
16481;BME280;44634;54.110;12.138;2023-06-14T06:35:59;101805.53;;;21.27;100.00
16481;BME280;44634;54.110;12.138;2023-06-14T06:38:27;101826.34;;;21.25;100.00
16481;BME280;44634;54.110;12.138;2023-06-14T06:40:54;101807.34;;;21.03;100.00
16481;BME280;44634;54.110;12.138;2023-06-14T06:43:23;101840.66;;;21.25;100.00
16481;BME280;44634;54.110;12.138;2023-06-14T06:45:51;101855.03;;;20.87;100.00
16481;BME280;44634;54.110;12.138;2023-06-14T06:48:18;101828.38;;;20.46;100.00
16481;BME280;44634;54.110;12.138;2023-06-14T06:50:48;101828.97;;;21.10;100.00
16481;BME280;44634;54.110;12.138;2023-06-14T06:53:15;101843.47;;;21.32;100.00
16481;BME280;44634;54.110;12.138;2023-06-14T06:56:00;101882.53;;;22.33;100.00
16481;BME280;44634;54.110;12.138;2023-06-14T06:58:28;101896.34;;;22.00;100.00
16481;BME280;44634;54.110;12.138;2023-06-14T07:00:56;101914.03;;;22.17;100.00
16481;BME280;44634;54.110;12.138;2023-06-14T07:03:24;101884.34;;;22.03;100.00
16481;BME280;44634;54.110;12.138;2023-06-14T07:05:53;101903.44;;;21.78;100.00
16481;BME280;44634;54.110;12.138;2023-06-14T07:08:21;101901.66;;;22.08;100.00
16481;BME280;44634;54.110;12.138;2023-06-14T07:10:49;101923.78;;;22.18;100.00
16481;BME280;44634;54.110;12.138;2023-06-14T07:13:16;101939.16;;;22.98;100.00
16481;BME280;44634;54.110;12.138;2023-06-14T07:15:44;101946.16;;;22.48;100.00
16481;BME280;44634;54.110;12.138;2023-06-14T07:18:12;101961.69;;;22.61;100.00
16481;BME280;44634;54.110;12.138;2023-06-14T07:20:42;101967.50;;;23.66;100.00
16481;BME280;44634;54.110;12.138;2023-06-14T07:23:11;101969.03;;;23.33;100.00
16481;BME280;44634;54.110;12.138;2023-06-14T07:25:39;101958.63;;;22.49;100.00
16481;BME280;44634;54.110;12.138;2023-06-14T07:28:07;101963.38;;;22.62;100.00
16481;BME280;44634;54.110;12.138;2023-06-14T07:30:35;101977.09;;;22.97;100.00
16481;BME280;44634;54.110;12.138;2023-06-14T07:33:02;101974.41;;;22.38;100.00
16481;BME280;44634;54.110;12.138;2023-06-14T07:35:30;101975.44;;;22.81;100.00
16481;BME280;44634;54.110;12.138;2023-06-14T07:37:58;101977.59;;;23.00;100.00
16481;BME280;44634;54.110;12.138;2023-06-14T07:40:27;101980.00;;;22.95;100.00
16481;BME280;44634;54.110;12.138;2023-06-14T07:42:55;101988.09;;;24.17;100.00
16481;BME280;44634;54.110;12.138;2023-06-14T07:45:23;101974.13;;;22.77;100.00
16481;BME280;44634;54.110;12.138;2023-06-14T07:47:51;101990.56;;;23.48;100.00
16481;BME280;44634;54.110;12.138;2023-06-14T07:50:19;101979.44;;;24.00;100.00
16481;BME280;44634;54.110;12.138;2023-06-14T07:52:47;101984.06;;;24.06;100.00
16481;BME280;44634;54.110;12.138;2023-06-14T07:55:15;101992.84;;;23.65;100.00
16481;BME280;44634;54.110;12.138;2023-06-14T07:57:45;101981.59;;;24.32;100.00
16481;BME280;44634;54.110;12.138;2023-06-14T08:00:14;101982.31;;;23.56;100.00
16481;BME280;44634;54.110;12.138;2023-06-14T08:02:43;101957.94;;;23.28;100.00
16481;BME280;44634;54.110;12.138;2023-06-14T08:05:12;101967.69;;;23.07;100.00
16481;BME280;44634;54.110;12.138;2023-06-14T08:07:40;101975.03;;;23.71;100.00
16481;BME280;44634;54.110;12.138;2023-06-14T08:10:09;101963.38;;;23.13;100.00
16481;BME280;44634;54.110;12.138;2023-06-14T08:12:37;101971.28;;;23.51;100.00
16481;BME280;44634;54.110;12.138;2023-06-14T08:15:06;102001.81;;;23.51;100.00
16481;BME280;44634;54.110;12.138;2023-06-14T08:17:40;102011.22;;;24.26;100.00
16481;BME280;44634;54.110;12.138;2023-06-14T08:20:09;102017.34;;;24.62;100.00
16481;BME280;44634;54.110;12.138;2023-06-14T08:22:37;102013.63;;;24.70;100.00
16481;BME280;44634;54.110;12.138;2023-06-14T08:25:06;102023.34;;;24.58;100.00
16481;BME280;44634;54.110;12.138;2023-06-14T08:27:35;102025.38;;;24.49;100.00
16481;BME280;44634;54.110;12.138;2023-06-14T08:30:03;102019.50;;;23.96;100.00
16481;BME280;44634;54.110;12.138;2023-06-14T08:32:32;102015.00;;;24.94;100.00
16481;BME280;44634;54.110;12.138;2023-06-14T08:35:00;102012.88;;;25.24;100.00
16481;BME280;44634;54.110;12.138;2023-06-14T08:37:31;102012.88;;;24.20;100.00
16481;BME280;44634;54.110;12.138;2023-06-14T08:39:59;102016.88;;;25.41;100.00
16481;BME280;44634;54.110;12.138;2023-06-14T08:42:32;102007.78;;;24.67;100.00
16481;BME280;44634;54.110;12.138;2023-06-14T08:45:00;102015.97;;;24.80;100.00
16481;BME280;44634;54.110;12.138;2023-06-14T08:47:28;102024.88;;;24.39;100.00
16481;BME280;44634;54.110;12.138;2023-06-14T08:50:09;102029.16;;;24.96;100.00
16481;BME280;44634;54.110;12.138;2023-06-14T08:52:55;102045.75;;;24.45;91.28
16481;BME280;44634;54.110;12.138;2023-06-14T08:55:24;102036.78;;;24.79;100.00
16481;BME280;44634;54.110;12.138;2023-06-14T08:57:54;102031.91;;;25.57;100.00
16481;BME280;44634;54.110;12.138;2023-06-14T09:00:24;102021.50;;;25.67;100.00
16481;BME280;44634;54.110;12.138;2023-06-14T09:02:53;102042.22;;;25.27;99.78
16481;BME280;44634;54.110;12.138;2023-06-14T09:05:27;102040.97;;;25.97;71.37
16481;BME280;44634;54.110;12.138;2023-06-14T09:07:55;102034.28;;;26.53;63.22
16481;BME280;44634;54.110;12.138;2023-06-14T09:10:31;102037.22;;;25.98;71.40
16481;BME280;44634;54.110;12.138;2023-06-14T09:13:01;102041.38;;;26.54;67.43
16481;BME280;44634;54.110;12.138;2023-06-14T09:15:30;102036.56;;;26.62;65.40
16481;BME280;44634;54.110;12.138;2023-06-14T09:17:58;102037.31;;;25.57;60.26
16481;BME280;44634;54.110;12.138;2023-06-14T09:20:29;102029.59;;;26.93;55.20
16481;BME280;44634;54.110;12.138;2023-06-14T09:22:57;102030.13;;;27.21;48.85
16481;BME280;44634;54.110;12.138;2023-06-14T09:25:25;102032.59;;;26.58;49.83
16481;BME280;44634;54.110;12.138;2023-06-14T09:27:56;102039.66;;;26.79;49.28
16481;BME280;44634;54.110;12.138;2023-06-14T09:30:24;102038.25;;;26.57;53.95
16481;BME280;44634;54.110;12.138;2023-06-14T09:32:52;102032.66;;;27.16;51.62
16481;BME280;44634;54.110;12.138;2023-06-14T09:35:20;102032.31;;;26.93;49.73
16481;BME280;44634;54.110;12.138;2023-06-14T09:37:49;102031.56;;;26.66;46.94
16481;BME280;44634;54.110;12.138;2023-06-14T09:40:20;102031.19;;;26.36;49.88
16481;BME280;44634;54.110;12.138;2023-06-14T09:42:49;102023.75;;;27.41;45.99
16481;BME280;44634;54.110;12.138;2023-06-14T09:45:17;102029.56;;;26.99;46.82
16481;BME280;44634;54.110;12.138;2023-06-14T09:47:49;102026.09;;;27.37;45.16
16481;BME280;44634;54.110;12.138;2023-06-14T09:50:31;102022.28;;;27.07;45.95
16481;BME280;44634;54.110;12.138;2023-06-14T09:53:03;102029.78;;;27.49;44.60
16481;BME280;44634;54.110;12.138;2023-06-14T09:55:34;102019.16;;;28.04;42.56
16481;BME280;44634;54.110;12.138;2023-06-14T09:58:06;102019.56;;;26.93;44.43
16481;BME280;44634;54.110;12.138;2023-06-14T10:00:35;102009.56;;;28.02;43.43
16481;BME280;44634;54.110;12.138;2023-06-14T10:03:08;102012.59;;;28.12;42.65
16481;BME280;44634;54.110;12.138;2023-06-14T10:05:39;102014.25;;;27.88;42.01
16481;BME280;44634;54.110;12.138;2023-06-14T10:08:13;102009.81;;;28.19;40.78
16481;BME280;44634;54.110;12.138;2023-06-14T10:10:42;102012.75;;;28.17;39.50
16481;BME280;44634;54.110;12.138;2023-06-14T10:13:11;102000.44;;;27.58;39.26
16481;BME280;44634;54.110;12.138;2023-06-14T10:15:47;101999.28;;;28.29;38.94
16481;BME280;44634;54.110;12.138;2023-06-14T10:18:21;102001.66;;;28.62;38.52
16481;BME280;44634;54.110;12.138;2023-06-14T10:20:58;102007.03;;;28.50;38.27
16481;BME280;44634;54.110;12.138;2023-06-14T10:23:30;102003.78;;;29.15;36.93
16481;BME280;44634;54.110;12.138;2023-06-14T10:26:00;102007.97;;;27.94;38.00
16481;BME280;44634;54.110;12.138;2023-06-14T10:28:28;102009.72;;;28.32;36.98
16481;BME280;44634;54.110;12.138;2023-06-14T10:31:05;102009.94;;;29.22;35.59
16481;BME280;44634;54.110;12.138;2023-06-14T10:33:33;101996.56;;;29.20;34.50
16481;BME280;44634;54.110;12.138;2023-06-14T10:36:09;101994.34;;;29.29;34.43
16481;BME280;44634;54.110;12.138;2023-06-14T10:38:38;102000.50;;;29.24;33.39
16481;BME280;44634;54.110;12.138;2023-06-14T10:41:07;101996.47;;;30.22;32.20
16481;BME280;44634;54.110;12.138;2023-06-14T10:43:34;101995.59;;;29.15;32.98
16481;BME280;44634;54.110;12.138;2023-06-14T10:46:16;101991.91;;;29.39;33.22
16481;BME280;44634;54.110;12.138;2023-06-14T10:48:44;101992.09;;;30.09;31.84
16481;BME280;44634;54.110;12.138;2023-06-14T10:51:16;101992.38;;;29.78;31.91
16481;BME280;44634;54.110;12.138;2023-06-14T10:53:49;101987.75;;;29.78;31.71
16481;BME280;44634;54.110;12.138;2023-06-14T10:56:26;101980.19;;;30.62;30.53
16481;BME280;44634;54.110;12.138;2023-06-14T10:58:54;101981.84;;;29.93;31.35
16481;BME280;44634;54.110;12.138;2023-06-14T11:01:32;101974.50;;;30.64;30.51
16481;BME280;44634;54.110;12.138;2023-06-14T11:04:09;101969.59;;;31.06;30.20
16481;BME280;44634;54.110;12.138;2023-06-14T11:06:47;101973.00;;;30.09;30.79
16481;BME280;44634;54.110;12.138;2023-06-14T11:09:47;101960.03;;;30.92;30.16
16481;BME280;44634;54.110;12.138;2023-06-14T11:12:17;101968.53;;;31.07;30.18
16481;BME280;44634;54.110;12.138;2023-06-14T11:14:46;101954.56;;;31.49;29.26
16481;BME280;44634;54.110;12.138;2023-06-14T11:17:15;101973.78;;;30.68;29.73
16481;BME280;44634;54.110;12.138;2023-06-14T11:19:43;101975.09;;;30.42;29.68
16481;BME280;44634;54.110;12.138;2023-06-14T11:22:12;101967.56;;;31.13;28.90
16481;BME280;44634;54.110;12.138;2023-06-14T11:24:42;101962.78;;;31.82;28.74
16481;BME280;44634;54.110;12.138;2023-06-14T11:27:11;101964.19;;;30.94;29.17
16481;BME280;44634;54.110;12.138;2023-06-14T11:29:47;101967.31;;;31.43;28.25
16481;BME280;44634;54.110;12.138;2023-06-14T11:32:15;101975.34;;;30.29;28.97
16481;BME280;44634;54.110;12.138;2023-06-14T11:34:46;101960.03;;;31.65;27.38
16481;BME280;44634;54.110;12.138;2023-06-14T11:37:13;101951.09;;;32.04;27.37
16481;BME280;44634;54.110;12.138;2023-06-14T11:39:43;101961.16;;;31.98;27.33
16481;BME280;44634;54.110;12.138;2023-06-14T11:42:14;101971.53;;;30.65;28.21
16481;BME280;44634;54.110;12.138;2023-06-14T11:44:45;101947.78;;;30.94;28.88
16481;BME280;44634;54.110;12.138;2023-06-14T11:47:13;101952.38;;;31.05;28.40
16481;BME280;44634;54.110;12.138;2023-06-14T11:49:41;101946.66;;;30.78;28.37
16481;BME280;44634;54.110;12.138;2023-06-14T11:52:10;101944.66;;;31.76;27.83
16481;BME280;44634;54.110;12.138;2023-06-14T11:54:38;101947.22;;;31.21;27.43
16481;BME280;44634;54.110;12.138;2023-06-14T11:57:06;101955.97;;;30.54;28.63
16481;BME280;44634;54.110;12.138;2023-06-14T11:59:39;101952.53;;;30.47;28.38
16481;BME280;44634;54.110;12.138;2023-06-14T12:02:07;101943.78;;;29.75;28.13
16481;BME280;44634;54.110;12.138;2023-06-14T12:04:35;101949.88;;;29.47;28.74
16481;BME280;44634;54.110;12.138;2023-06-14T12:07:09;101957.78;;;29.90;28.63
16481;BME280;44634;54.110;12.138;2023-06-14T12:09:38;101957.69;;;30.08;28.25
16481;BME280;44634;54.110;12.138;2023-06-14T12:12:07;101956.69;;;29.56;28.34
16481;BME280;44634;54.110;12.138;2023-06-14T12:14:35;101950.72;;;30.76;27.29
16481;BME280;44634;54.110;12.138;2023-06-14T12:17:07;101957.31;;;30.28;27.42
16481;BME280;44634;54.110;12.138;2023-06-14T12:19:41;101950.78;;;30.41;27.56
16481;BME280;44634;54.110;12.138;2023-06-14T12:22:10;101949.22;;;30.57;27.84
16481;BME280;44634;54.110;12.138;2023-06-14T12:24:38;101943.41;;;31.22;27.29
16481;BME280;44634;54.110;12.138;2023-06-14T12:27:06;101946.16;;;30.41;28.38
16481;BME280;44634;54.110;12.138;2023-06-14T12:29:34;101944.75;;;30.27;28.28
16481;BME280;44634;54.110;12.138;2023-06-14T12:32:02;101950.41;;;30.49;27.90
16481;BME280;44634;54.110;12.138;2023-06-14T12:34:31;101933.69;;;31.43;27.40
16481;BME280;44634;54.110;12.138;2023-06-14T12:36:59;101953.06;;;30.20;28.06
16481;BME280;44634;54.110;12.138;2023-06-14T12:39:27;101944.34;;;30.47;27.71
16481;BME280;44634;54.110;12.138;2023-06-14T12:41:55;101947.56;;;30.44;27.94
16481;BME280;44634;54.110;12.138;2023-06-14T12:44:23;101950.81;;;30.17;28.12